Terminal Aerodrome Forecast
Issued by NWS

Home | Current Version | Previous Version | Text Only | Print | Product List | Glossary On
Versions: 1 2 3 4 5 6 7 8 9 10 11 12 13 14 15 16 17 18 19 20 21 22 23 24 25 26 27 28 29 30 31
043
FTUS42 KCAE 050834 AAB
TAFOGB
TAF AMD
KOGB 050834Z 0509/0606 35005KT 6SM -RA BKN005 OVC010
      TEMPO 0509/0512 3SM RA BR OVC005
     FM051200 VRB03KT 2SM -RA BR OVC003
     FM051400 01005KT 2SM -RA BR OVC003
     FM051800 03005KT 4SM -RA BR OVC025
     FM060000 07004KT 4SM -RA BR OVC020=

USA.gov is the U.S. government's official web portal to all federal, state and local government web resources and services.